Time;durP1;ratioP1;P1;durP2;ratioP2;P2;SDS_P1;SDS_P2;PMS_P1;PMS_P2;Temp;Humidity;BMP_temperature;BMP_pressure;BME280_temperature;BME280_humidity;BME280_pressure;Samples;Min_cycle;Max_cycle;Signal;HPM_P1;HPM_P2
2023/11/11 00:00:16;;;;;;;3.03;0.90;;;;;;;8.99;90.30;98300.69;10198912;28;20047;-69
2023/11/11 00:05:17;;;;;;;2.58;0.82;;;;;;;9.07;91.11;98307.84;10201109;28;20138;-69
2023/11/11 00:10:20;;;;;;;3.10;1.00;;;;;;;9.14;91.50;98297.41;10206825;28;20059;-69
2023/11/11 00:15:21;;;;;;;4.97;1.23;;;;;;;9.18;91.14;98293.44;10205641;28;20065;-69
2023/11/11 00:20:23;;;;;;;3.97;1.05;;;;;;;9.19;90.57;98273.88;10198941;28;20055;-68
2023/11/11 00:25:25;;;;;;;3.65;1.25;;;;;;;9.14;91.20;98277.03;10202109;28;21079;-68
2023/11/11 00:30:26;;;;;;;4.10;0.60;;;;;;;9.18;91.25;98278.34;10204110;28;20059;-69
2023/11/11 00:35:28;;;;;;;4.15;1.25;;;;;;;9.23;91.85;98274.38;10207434;28;20069;-69
2023/11/11 00:40:33;;;;;;;2.75;0.85;;;;;;;9.26;91.65;98263.41;10205283;28;20063;-69
2023/11/11 00:45:35;;;;;;;3.40;0.65;;;;;;;9.31;91.09;98266.44;10200591;28;20199;-68
2023/11/11 00:50:36;;;;;;;1.65;0.60;;;;;;;9.30;91.89;98270.88;10198889;28;20058;-68
2023/11/11 00:55:38;;;;;;;2.05;0.47;;;;;;;9.30;91.26;98259.44;10201373;28;20062;-68
2023/11/11 01:00:40;;;;;;;2.22;0.77;;;;;;;9.27;91.98;98259.78;10201422;28;20070;-69
2023/11/11 01:05:41;;;;;;;2.97;0.52;;;;;;;9.32;91.91;98274.22;10203095;28;20054;-69
2023/11/11 01:10:44;;;;;;;1.42;0.52;;;;;;;9.34;91.99;98276.72;10201509;28;20130;-68
2023/11/11 01:15:45;;;;;;;2.00;0.50;;;;;;;9.31;92.40;98271.75;10202945;28;20125;-68
2023/11/11 01:20:47;;;;;;;2.58;1.08;;;;;;;9.39;92.16;98279.69;10204485;28;20062;-68
2023/11/11 01:25:49;;;;;;;2.60;0.90;;;;;;;9.46;92.72;98275.41;10204972;28;20140;-69
2023/11/11 01:30:50;;;;;;;1.73;0.40;;;;;;;9.53;92.64;98268.44;10206558;28;20099;-68
2023/11/11 01:35:54;;;;;;;1.15;0.70;;;;;;;9.55;92.94;98278.91;10205667;28;20077;-69
2023/11/11 01:40:56;;;;;;;3.03;1.02;;;;;;;9.47;94.27;98284.19;10205416;28;20066;-69
2023/11/11 01:46:05;;;;;;;3.38;0.98;;;;;;;9.49;94.86;98290.19;10207087;28;20059;-69
2023/11/11 01:51:07;;;;;;;2.97;0.70;;;;;;;9.47;95.01;98300.97;10209199;28;20062;-69
2023/11/11 01:56:09;;;;;;;3.20;0.85;;;;;;;9.48;95.78;98313.22;10205600;28;20315;-69
2023/11/11 02:01:11;;;;;;;2.70;0.82;;;;;;;9.30;96.33;98325.81;10206674;28;20047;-69
2023/11/11 02:06:12;;;;;;;2.95;0.63;;;;;;;9.14;94.66;98330.09;10202448;28;20081;-68
2023/11/11 02:11:14;;;;;;;0.88;0.28;;;;;;;8.92;92.11;98336.00;10207753;28;20055;-69
2023/11/11 02:16:17;;;;;;;0.73;0.00;;;;;;;8.45;91.04;98337.25;10206764;28;20207;-69
2023/11/11 02:21:18;;;;;;;0.50;0.17;;;;;;;8.29;87.13;98335.31;10209287;28;20055;-68
2023/11/11 02:26:20;;;;;;;0.20;0.00;;;;;;;8.14;86.30;98359.72;10203890;28;20057;-69
2023/11/11 02:31:22;;;;;;;0.20;0.00;;;;;;;7.99;85.87;98363.91;10208954;28;20047;-68
2023/11/11 02:36:23;;;;;;;0.95;0.00;;;;;;;7.76;87.08;98403.25;10209709;28;20054;-67
2023/11/11 02:41:25;;;;;;;0.50;0.10;;;;;;;7.83;88.10;98424.69;10213416;28;20071;-67
2023/11/11 02:46:26;;;;;;;0.82;0.00;;;;;;;7.92;88.42;98429.09;10208896;28;20146;-66
2023/11/11 02:51:28;;;;;;;1.20;0.00;;;;;;;8.06;87.53;98441.81;10204392;28;20083;-68
2023/11/11 02:56:29;;;;;;;0.30;0.00;;;;;;;8.34;88.04;98465.56;10206402;28;20175;-67
2023/11/11 03:01:35;;;;;;;0.30;0.00;;;;;;;8.38;86.31;98485.50;10204631;28;20058;-67
2023/11/11 03:06:42;;;;;;;0.13;0.00;;;;;;;8.24;87.48;98499.28;10204703;28;20043;-67
2023/11/11 03:11:43;;;;;;;0.88;0.00;;;;;;;8.35;87.45;98519.41;10201896;28;20051;-67
2023/11/11 03:16:45;;;;;;;0.17;0.00;;;;;;;8.38;87.40;98522.59;10202019;28;20824;-67
2023/11/11 03:21:47;;;;;;;0.25;0.00;;;;;;;8.42;88.78;98533.72;10201807;28;20130;-67
2023/11/11 03:26:49;;;;;;;0.22;0.05;;;;;;;8.58;87.72;98547.16;10200649;28;20105;-68
2023/11/11 03:31:50;;;;;;;0.10;0.00;;;;;;;8.68;87.73;98549.75;10202752;28;20644;-68
2023/11/11 03:36:51;;;;;;;0.22;0.00;;;;;;;8.70;88.06;98561.03;10197045;28;20551;-67
2023/11/11 03:41:53;;;;;;;0.30;0.10;;;;;;;8.75;88.87;98566.72;10207254;28;20123;-68
2023/11/11 03:46:55;;;;;;;0.17;0.08;;;;;;;8.80;87.71;98572.41;10197372;28;20055;-68
2023/11/11 03:51:56;;;;;;;0.20;0.00;;;;;;;8.71;87.53;98575.97;10194707;28;20073;-68
2023/11/11 03:56:58;;;;;;;1.30;0.20;;;;;;;8.72;87.57;98595.38;10204059;28;20058;-68
2023/11/11 04:01:59;;;;;;;0.30;0.00;;;;;;;8.62;87.17;98606.06;10203123;28;20070;-68
2023/11/11 04:07:01;;;;;;;0.43;0.00;;;;;;;8.58;87.60;98607.34;10204233;28;20052;-67
2023/11/11 04:12:05;;;;;;;0.77;0.00;;;;;;;8.52;87.80;98615.91;10200516;28;20058;-68
2023/11/11 04:17:07;;;;;;;1.17;0.10;;;;;;;8.49;87.96;98625.81;10201972;28;20047;-68
2023/11/11 04:22:09;;;;;;;0.82;0.10;;;;;;;8.53;88.58;98633.47;10203253;28;20055;-69
2023/11/11 04:27:10;;;;;;;0.75;0.28;;;;;;;8.53;88.22;98652.88;10199640;28;20522;-67
2023/11/11 04:32:11;;;;;;;0.40;0.20;;;;;;;8.54;88.77;98656.38;10220253;28;20138;-68
2023/11/11 04:37:13;;;;;;;0.68;0.30;;;;;;;8.52;88.98;98661.81;10207172;28;20635;-69
2023/11/11 04:42:17;;;;;;;1.05;0.30;;;;;;;8.52;89.55;98675.06;10202473;28;20062;-67
2023/11/11 04:47:20;;;;;;;0.50;0.30;;;;;;;8.58;89.26;98685.09;10201064;28;20043;-67
2023/11/11 04:52:25;;;;;;;0.73;0.55;;;;;;;8.57;89.32;98687.88;10208864;28;20043;-67
2023/11/11 04:57:26;;;;;;;1.05;0.50;;;;;;;8.60;89.79;98688.44;10207835;28;20115;-67
2023/11/11 05:02:27;;;;;;;0.95;0.82;;;;;;;8.51;90.11;98707.88;10205219;28;20122;-67
2023/11/11 05:07:29;;;;;;;1.83;0.50;;;;;;;8.47;90.63;98704.69;10197919;28;20066;-69
2023/11/11 05:12:33;;;;;;;2.88;0.68;;;;;;;8.43;90.80;98708.59;10203604;28;20079;-67
2023/11/11 05:17:35;;;;;;;0.82;0.50;;;;;;;8.54;91.51;98730.63;10211919;28;21252;-67
2023/11/11 05:22:37;;;;;;;1.30;0.70;;;;;;;8.58;90.96;98737.31;10194266;28;20513;-68
2023/11/11 05:27:39;;;;;;;2.22;1.05;;;;;;;8.66;90.58;98761.25;10207208;28;20059;-67
2023/11/11 05:32:41;;;;;;;2.05;1.02;;;;;;;8.66;90.32;98766.56;10207469;28;20098;-67
2023/11/11 05:37:42;;;;;;;2.65;0.95;;;;;;;8.64;90.09;98784.47;10209073;28;20062;-68
2023/11/11 05:42:47;;;;;;;1.25;1.10;;;;;;;8.55;90.36;98785.34;10214566;28;20505;-69
2023/11/11 05:47:48;;;;;;;2.17;1.10;;;;;;;8.60;89.68;98806.94;10207588;28;20053;-69
2023/11/11 05:52:50;;;;;;;1.67;0.95;;;;;;;8.61;89.74;98808.63;10207804;28;20129;-69
2023/11/11 05:57:51;;;;;;;2.33;0.88;;;;;;;8.62;89.84;98805.81;10207451;28;20055;-69
2023/11/11 06:02:53;;;;;;;2.65;1.17;;;;;;;8.69;89.61;98818.50;10207788;28;20474;-69
2023/11/11 06:07:55;;;;;;;1.58;0.82;;;;;;;8.74;89.80;98825.03;10200523;28;20057;-69
2023/11/11 06:12:59;;;;;;;2.42;1.10;;;;;;;8.82;89.73;98842.88;10210227;28;20066;-68
2023/11/11 06:18:01;;;;;;;1.85;1.08;;;;;;;8.74;88.51;98848.91;10207270;28;20047;-68
2023/11/11 06:23:04;;;;;;;2.05;0.90;;;;;;;8.74;88.91;98858.72;10205525;28;20047;-71
2023/11/11 06:28:10;;;;;;;1.30;0.55;;;;;;;8.66;88.71;98878.84;10206639;28;20122;-67
2023/11/11 06:33:12;;;;;;;2.05;0.70;;;;;;;8.58;87.74;98880.53;10203062;28;20051;-67
2023/11/11 06:38:14;;;;;;;0.70;0.40;;;;;;;8.60;88.58;98889.16;10208167;28;20340;-69
2023/11/11 06:43:15;;;;;;;2.22;0.70;;;;;;;8.64;88.72;98907.31;10196883;28;20059;-68
2023/11/11 06:48:17;;;;;;;3.08;1.10;;;;;;;8.67;88.81;98914.97;10208360;28;20054;-67
2023/11/11 06:53:19;;;;;;;1.75;0.70;;;;;;;8.71;88.15;98917.34;10211872;28;20062;-67
2023/11/11 06:58:20;;;;;;;0.88;0.75;;;;;;;8.71;88.34;98927.94;10202544;28;20549;-68
2023/11/11 07:03:23;;;;;;;2.03;0.77;;;;;;;8.67;88.01;98938.84;10204819;28;20058;-68
2023/11/11 07:08:28;;;;;;;1.83;0.70;;;;;;;8.79;88.18;98944.81;10205262;28;20071;-68
2023/11/11 07:13:29;;;;;;;1.40;0.82;;;;;;;8.82;87.82;98957.81;10205612;28;20109;-68
2023/11/11 07:18:32;;;;;;;1.40;0.70;;;;;;;8.80;86.17;98972.22;10202569;28;20577;-68
2023/11/11 07:23:34;;;;;;;2.05;0.80;;;;;;;8.79;85.63;98975.84;10204169;28;20059;-68
2023/11/11 07:28:38;;;;;;;1.75;0.50;;;;;;;8.73;84.75;98982.53;10191843;28;20051;-68
2023/11/11 07:33:41;;;;;;;2.15;0.50;;;;;;;8.71;85.42;98992.47;10204797;28;20083;-67
2023/11/11 07:38:43;;;;;;;2.00;0.43;;;;;;;8.64;85.20;98986.88;10200987;28;22657;-68
2023/11/11 07:43:45;;;;;;;2.25;0.40;;;;;;;8.81;85.79;98998.59;10199087;28;20065;-67
2023/11/11 07:48:47;;;;;;;1.35;0.20;;;;;;;8.80;84.00;99006.72;10202708;28;20043;-66
2023/11/11 07:53:48;;;;;;;1.50;0.35;;;;;;;8.80;82.18;99009.38;10202692;28;20063;-67
2023/11/11 07:58:53;;;;;;;1.08;0.30;;;;;;;8.84;83.45;99016.91;10203676;28;20063;-67
2023/11/11 08:03:55;;;;;;;1.73;0.47;;;;;;;8.87;81.22;99022.88;10199800;28;20688;-68
2023/11/11 08:08:57;;;;;;;1.88;0.77;;;;;;;8.75;80.69;99025.72;10201013;28;20063;-67
2023/11/11 08:13:59;;;;;;;2.55;0.40;;;;;;;8.77;81.79;99037.00;10199979;28;20062;-68
2023/11/11 08:19:00;;;;;;;1.90;0.45;;;;;;;8.88;80.74;99040.50;10192977;28;20059;-67
2023/11/11 08:24:03;;;;;;;3.30;0.57;;;;;;;8.93;80.64;99047.06;10204739;28;20622;-68
2023/11/11 08:29:04;;;;;;;0.93;0.40;;;;;;;9.04;79.66;99051.34;10199639;28;20055;-68
2023/11/11 08:34:06;;;;;;;1.88;0.47;;;;;;;9.18;79.54;99053.53;10201130;28;20047;-68
2023/11/11 08:39:08;;;;;;;1.80;0.52;;;;;;;9.24;78.96;99069.91;10202916;28;20069;-68
2023/11/11 08:44:10;;;;;;;0.65;0.30;;;;;;;9.37;79.40;99073.91;10201741;28;20106;-67
2023/11/11 08:49:12;;;;;;;2.00;0.50;;;;;;;9.54;79.33;99077.59;10201297;28;20054;-67
2023/11/11 08:54:14;;;;;;;0.93;0.40;;;;;;;9.77;79.04;99085.19;10204910;28;20061;-67
2023/11/11 08:59:16;;;;;;;1.75;0.88;;;;;;;9.91;78.90;99081.25;10205162;28;20051;-66
2023/11/11 09:04:17;;;;;;;1.83;1.00;;;;;;;10.13;78.09;99079.97;10206621;28;20490;-67
2023/11/11 09:09:19;;;;;;;2.58;0.90;;;;;;;10.22;76.12;99084.41;10203338;28;20060;-67
2023/11/11 09:14:22;;;;;;;1.83;0.90;;;;;;;10.41;74.96;99093.28;10199401;28;20207;-66
2023/11/11 09:19:24;;;;;;;2.42;1.15;;;;;;;10.63;74.96;99099.97;10206414;28;20149;-68
2023/11/11 09:24:25;;;;;;;5.18;1.25;;;;;;;11.00;71.98;99103.44;10184276;28;20074;-69
2023/11/11 09:29:27;;;;;;;2.38;1.48;;;;;;;11.14;69.40;99097.56;10204364;28;20104;-69
2023/11/11 09:34:32;;;;;;;1.80;0.98;;;;;;;11.61;68.24;99118.50;10196880;28;20123;-69
2023/11/11 09:39:33;;;;;;;1.38;1.02;;;;;;;12.25;62.86;99130.66;10196892;28;20059;-68
2023/11/11 09:44:36;;;;;;;3.50;1.17;;;;;;;11.45;65.23;99124.59;10183101;28;20468;-68
2023/11/11 09:49:44;;;;;;;2.42;1.20;;;;;;;11.04;66.18;99134.13;10215577;28;20054;-68
2023/11/11 09:54:46;;;;;;;3.50;1.48;;;;;;;10.77;65.96;99135.88;10207050;28;20163;-68
2023/11/11 09:59:51;;;;;;;2.95;1.05;;;;;;;10.57;66.63;99133.34;10208038;28;20051;-68
2023/11/11 10:04:53;;;;;;;;;;;;;;;10.39;65.53;99137.81;10203206;28;20066;-67
2023/11/11 10:09:55;;;;;;;3.33;1.00;;;;;;;10.21;64.78;99141.25;10205973;28;19969;-68
2023/11/11 10:15:01;;;;;;;3.42;1.00;;;;;;;10.27;65.95;99140.66;10206302;28;20056;-69
2023/11/11 10:20:14;;;;;;;1.48;0.95;;;;;;;10.34;63.70;99134.75;10203813;28;22477;-68
2023/11/11 10:25:18;;;;;;;2.42;0.90;;;;;;;10.25;61.76;99141.78;10203825;28;20082;-69
2023/11/11 10:30:26;;;;;;;2.20;1.27;;;;;;;10.29;62.52;99132.53;10210861;28;20063;-68
2023/11/11 10:35:27;;;;;;;3.28;1.02;;;;;;;10.22;63.25;99132.28;10207335;28;20932;-68
2023/11/11 10:40:30;;;;;;;2.47;0.98;;;;;;;10.06;60.64;99137.41;10204670;28;21077;-69
2023/11/11 10:45:32;;;;;;;2.65;1.13;;;;;;;10.04;60.00;99128.72;10206662;28;20070;-68
2023/11/11 10:50:38;;;;;;;2.05;0.90;;;;;;;10.05;61.06;99141.06;10205672;28;20227;-67
2023/11/11 10:55:41;;;;;;;1.20;0.80;;;;;;;9.99;59.95;99141.63;10203923;28;20682;-68
2023/11/11 11:00:47;;;;;;;2.80;1.00;;;;;;;9.91;59.45;99143.19;10204508;28;20063;-67
2023/11/11 11:06:12;;;;;;;3.80;1.08;;;;;;;9.99;60.37;99147.78;10191042;28;20043;-69
2023/11/11 11:11:25;;;;;;;3.25;0.80;;;;;;;10.00;59.65;99151.31;10206196;28;20054;-68
2023/11/11 11:16:28;;;;;;;1.42;0.73;;;;;;;9.90;58.96;99149.50;10203412;28;20043;-67
2023/11/11 11:21:33;;;;;;;2.50;1.05;;;;;;;9.96;59.99;99153.41;10219544;28;20138;-67
2023/11/11 11:26:35;;;;;;;3.13;0.88;;;;;;;10.12;60.58;99168.72;10207406;28;20118;-68
2023/11/11 11:32:09;;;;;;;1.50;0.65;;;;;;;10.18;59.04;99151.34;10212912;28;20110;-67
2023/11/11 11:37:12;;;;;;;1.85;0.75;;;;;;;10.32;60.07;99163.31;10208706;28;20082;-68
2023/11/11 11:42:20;;;;;;;2.70;0.98;;;;;;;10.23;57.34;99149.91;10205185;28;20086;-68
2023/11/11 11:47:32;;;;;;;1.90;0.80;;;;;;;10.10;59.17;99154.72;10220648;28;20104;-68
2023/11/11 11:52:35;;;;;;;2.40;0.70;;;;;;;10.11;59.13;99159.06;10198670;28;20057;-68
2023/11/11 11:57:53;;;;;;;3.15;0.80;;;;;;;10.29;58.93;99160.94;10199755;28;20416;-67
2023/11/11 12:02:56;;;;;;;1.63;0.82;;;;;;;10.38;59.88;99168.06;10199028;28;20047;-67
2023/11/11 12:07:58;;;;;;;3.20;1.20;;;;;;;10.34;59.00;99177.31;10200360;28;20127;-66
2023/11/11 12:13:00;;;;;;;1.30;0.80;;;;;;;10.28;58.39;99173.38;10203456;28;20059;-67
2023/11/11 12:18:12;;;;;;;3.03;1.27;;;;;;;10.41;58.65;99163.28;10203268;28;20055;-68
2023/11/11 12:23:14;;;;;;;3.25;0.90;;;;;;;10.23;58.82;99171.19;10203437;28;20051;-67
2023/11/11 12:28:16;;;;;;;2.83;1.00;;;;;;;10.02;58.98;99165.28;10201406;28;20509;-67
2023/11/11 12:33:18;;;;;;;2.85;1.20;;;;;;;9.96;58.22;99164.03;10198247;28;20056;-67
2023/11/11 12:38:24;;;;;;;4.38;1.13;;;;;;;10.09;59.81;99174.34;10202004;28;20110;-67
2023/11/11 12:43:26;;;;;;;2.90;1.30;;;;;;;10.14;59.72;99177.38;10187786;28;20115;-68
2023/11/11 12:48:31;;;;;;;2.33;1.10;;;;;;;10.22;59.65;99177.50;10191556;28;20070;-65
2023/11/11 12:53:42;;;;;;;3.30;1.17;;;;;;;10.23;58.42;99189.78;10201794;28;20637;-67
2023/11/11 12:58:43;;;;;;;2.28;1.25;;;;;;;10.16;59.22;99191.34;10198270;28;20047;-69
2023/11/11 13:03:51;;;;;;;3.38;1.05;;;;;;;10.24;59.79;99194.13;10202491;28;20050;-66
2023/11/11 13:08:54;;;;;;;2.00;0.93;;;;;;;10.30;59.24;99191.84;10204072;28;20051;-69
2023/11/11 13:13:55;;;;;;;1.90;1.23;;;;;;;10.22;58.72;99182.81;10222869;28;20082;-69
2023/11/11 13:19:01;;;;;;;3.42;0.95;;;;;;;10.41;59.12;99189.06;10230596;28;20098;-66
2023/11/11 13:24:11;;;;;;;1.50;0.40;;;;;;;10.49;59.28;99180.31;10243260;28;20079;-69
2023/11/11 13:29:14;;;;;;;2.05;0.80;;;;;;;10.43;59.04;99187.06;10198021;28;20058;-71
2023/11/11 13:34:17;;;;;;;1.55;0.60;;;;;;;10.73;58.26;99187.72;10211532;28;20070;-67
2023/11/11 13:39:26;;;;;;;2.70;0.73;;;;;;;10.51;58.97;99189.84;10209886;28;22219;-68
2023/11/11 13:44:27;;;;;;;2.60;0.68;;;;;;;10.47;60.07;99183.13;10220985;28;20058;-69
2023/11/11 13:49:31;;;;;;;3.08;0.70;;;;;;;10.62;59.35;99180.78;10207448;28;20106;-69
2023/11/11 13:54:32;;;;;;;1.77;0.63;;;;;;;10.67;60.19;99186.50;10223330;28;20047;-69
2023/11/11 13:59:35;;;;;;;1.45;0.65;;;;;;;10.56;59.38;99176.91;10209753;28;20055;-70
2023/11/11 14:04:37;;;;;;;2.05;1.15;;;;;;;10.52;60.31;99186.16;10197186;28;20509;-69
2023/11/11 14:09:39;;;;;;;3.33;0.95;;;;;;;10.47;60.58;99188.44;10215483;28;20052;-67
2023/11/11 14:14:40;;;;;;;2.53;0.55;;;;;;;10.67;59.75;99181.16;10196763;28;20050;-66
2023/11/11 14:19:41;;;;;;;1.42;0.40;;;;;;;12.85;54.43;99175.88;10212121;28;21178;-67
2023/11/11 14:24:45;;;;;;;1.73;0.88;;;;;;;11.72;56.52;99180.56;10203267;28;20042;-69
2023/11/11 14:29:48;;;;;;;2.72;0.80;;;;;;;11.12;57.74;99182.09;10216978;28;22739;-68
2023/11/11 14:34:52;;;;;;;1.63;0.60;;;;;;;10.87;58.67;99181.88;10193993;28;20051;-67
2023/11/11 14:39:53;;;;;;;3.00;0.60;;;;;;;10.67;59.05;99185.66;10201568;28;20055;-70
2023/11/11 14:44:55;;;;;;;2.05;0.80;;;;;;;10.53;59.12;99193.16;10207804;28;20062;-70
2023/11/11 14:49:57;;;;;;;2.05;0.60;;;;;;;11.91;56.50;99188.34;10212459;28;20167;-71
2023/11/11 14:54:58;;;;;;;1.08;0.22;;;;;;;11.19;57.06;99203.66;10207523;28;20133;-69
2023/11/11 15:00:01;;;;;;;2.15;0.65;;;;;;;10.71;58.92;99198.53;10205744;28;20043;-70
2023/11/11 15:05:05;;;;;;;2.07;0.80;;;;;;;10.47;59.93;99209.72;10211784;28;20059;-71
2023/11/11 15:10:07;;;;;;;2.13;0.75;;;;;;;10.41;61.41;99215.66;10199749;28;20067;-71
2023/11/11 15:15:08;;;;;;;2.40;1.10;;;;;;;10.33;60.99;99228.81;10216268;28;20051;-69
2023/11/11 15:20:15;;;;;;;2.35;1.23;;;;;;;10.30;61.05;99227.28;10201983;28;20639;-70
2023/11/11 15:25:19;;;;;;;2.20;0.95;;;;;;;10.32;62.55;99240.44;10207632;28;20194;-69
2023/11/11 15:30:22;;;;;;;1.75;0.75;;;;;;;10.38;61.95;99242.56;10207184;28;20047;-68
2023/11/11 15:35:23;;;;;;;2.10;1.10;;;;;;;10.21;62.35;99236.16;10206106;28;20056;-69
2023/11/11 15:40:25;;;;;;;2.75;0.90;;;;;;;10.17;62.45;99235.59;10220366;28;20043;-68
2023/11/11 15:45:26;;;;;;;3.38;1.10;;;;;;;10.21;63.28;99252.94;10212224;28;20059;-68
2023/11/11 15:50:28;;;;;;;1.17;0.68;;;;;;;10.25;63.74;99258.78;10205619;28;20058;-70
2023/11/11 15:55:31;;;;;;;1.75;0.93;;;;;;;10.03;63.67;99252.03;10203474;28;20063;-68
2023/11/11 16:00:33;;;;;;;1.25;0.77;;;;;;;10.00;64.06;99284.22;10204131;28;20058;-67
2023/11/11 16:05:38;;;;;;;2.42;0.80;;;;;;;9.97;64.66;99277.38;10221141;28;20726;-67
2023/11/11 16:10:39;;;;;;;1.10;0.68;;;;;;;9.98;65.50;99289.66;10197245;28;20054;-68
2023/11/11 16:15:40;;;;;;;2.47;1.08;;;;;;;9.99;65.97;99291.34;10204274;28;20154;-68
2023/11/11 16:20:42;;;;;;;1.40;0.60;;;;;;;9.84;66.89;99293.63;10202948;28;20134;-68
2023/11/11 16:25:44;;;;;;;3.17;1.20;;;;;;;9.94;67.35;99293.59;10206853;28;20055;-67
2023/11/11 16:30:45;;;;;;;1.35;0.68;;;;;;;9.91;67.91;99289.41;10202108;28;20058;-68
2023/11/11 16:35:47;;;;;;;1.63;0.70;;;;;;;9.87;68.38;99293.31;10203588;28;20545;-68
2023/11/11 16:40:49;;;;;;;1.65;0.75;;;;;;;9.90;68.45;99308.16;10197073;28;20142;-67
2023/11/11 16:45:50;;;;;;;1.90;0.75;;;;;;;9.80;68.62;99310.81;10199963;28;20179;-67
2023/11/11 16:50:52;;;;;;;2.22;0.57;;;;;;;9.70;68.44;99310.00;10200376;28;20150;-67
2023/11/11 16:55:55;;;;;;;1.98;0.50;;;;;;;9.70;68.73;99316.16;10196297;28;20130;-67
2023/11/11 17:01:00;;;;;;;1.42;0.70;;;;;;;9.66;69.23;99325.38;10211113;28;20071;-68
2023/11/11 17:06:04;;;;;;;1.52;1.20;;;;;;;9.60;69.67;99330.44;10209262;28;20066;-67
2023/11/11 17:11:08;;;;;;;1.40;0.60;;;;;;;9.61;69.64;99332.09;10205438;28;20521;-67
2023/11/11 17:16:10;;;;;;;2.20;0.50;;;;;;;9.62;69.82;99331.13;10229489;28;20058;-68
2023/11/11 17:21:12;;;;;;;2.03;0.98;;;;;;;9.53;69.72;99338.97;10213316;28;20043;-67
2023/11/11 17:26:13;;;;;;;0.70;0.32;;;;;;;9.46;70.60;99343.16;10206554;28;20051;-67
2023/11/11 17:31:15;;;;;;;2.05;0.73;;;;;;;9.47;70.88;99334.22;10211934;28;20088;-69
2023/11/11 17:36:17;;;;;;;2.55;1.65;;;;;;;9.61;71.01;99350.69;10207958;28;20165;-67
2023/11/11 17:41:18;;;;;;;1.55;0.90;;;;;;;9.69;70.80;99342.88;10204875;28;20221;-68
2023/11/11 17:46:22;;;;;;;1.93;0.90;;;;;;;9.64;70.76;99343.28;10204331;28;20197;-67
2023/11/11 17:51:24;;;;;;;1.55;0.80;;;;;;;9.55;71.33;99352.09;10213987;28;20055;-66
2023/11/11 17:56:29;;;;;;;3.15;0.82;;;;;;;9.63;71.32;99344.25;10204408;28;20059;-67
2023/11/11 18:01:36;;;;;;;1.55;1.02;;;;;;;9.57;71.66;99349.31;10206033;28;20057;-68
2023/11/11 18:06:42;;;;;;;2.95;1.10;;;;;;;9.59;72.15;99348.16;10217627;28;20146;-67
2023/11/11 18:11:46;;;;;;;2.17;1.60;;;;;;;9.68;72.10;99352.66;10205070;28;20047;-68
2023/11/11 18:16:47;;;;;;;3.60;1.40;;;;;;;9.59;72.62;99355.31;10207144;28;20073;-68
2023/11/11 18:21:49;;;;;;;2.90;2.15;;;;;;;9.58;72.62;99351.81;10206532;28;20540;-68
2023/11/11 18:26:51;;;;;;;4.15;2.42;;;;;;;9.50;74.05;99359.63;10204178;28;20217;-68
2023/11/11 18:31:52;;;;;;;3.28;2.47;;;;;;;9.42;75.23;99357.66;10198298;28;20056;-68
2023/11/11 18:36:55;;;;;;;3.28;2.22;;;;;;;9.34;76.01;99361.03;10190100;28;20153;-68
2023/11/11 18:41:57;;;;;;;4.10;2.70;;;;;;;9.33;76.09;99366.47;10204184;28;20501;-68
2023/11/11 18:47:02;;;;;;;2.30;2.10;;;;;;;9.25;76.16;99371.63;10203360;28;20722;-68
2023/11/11 18:52:05;;;;;;;4.75;2.28;;;;;;;9.23;76.15;99368.25;10180163;28;20055;-68
2023/11/11 18:57:07;;;;;;;7.18;2.92;;;;;;;9.14;76.76;99373.44;10203755;28;20810;-68
2023/11/11 19:02:11;;;;;;;5.82;3.22;;;;;;;9.23;76.36;99376.22;10184403;28;22177;-67
2023/11/11 19:07:14;;;;;;;4.40;3.63;;;;;;;9.13;76.44;99371.75;10201038;28;20051;-67
2023/11/11 19:12:16;;;;;;;4.13;2.95;;;;;;;9.18;76.41;99377.47;10214776;28;20061;-68
2023/11/11 19:17:18;;;;;;;6.55;4.35;;;;;;;9.08;76.15;99370.47;10209080;28;20059;-69
2023/11/11 19:22:20;;;;;;;4.88;3.10;;;;;;;8.96;76.46;99359.09;10201653;28;20094;-67
2023/11/11 19:27:21;;;;;;;3.78;3.03;;;;;;;9.04;76.30;99385.84;10201451;28;20052;-67
2023/11/11 19:32:22;;;;;;;6.05;2.88;;;;;;;9.00;76.19;99390.56;10201150;28;20682;-66
2023/11/11 19:37:24;;;;;;;4.53;3.30;;;;;;;8.95;76.49;99386.66;10203166;28;20244;-67
2023/11/11 19:42:26;;;;;;;6.63;3.47;;;;;;;8.88;76.24;99388.16;10199177;28;20051;-68
2023/11/11 19:47:28;;;;;;;5.13;2.80;;;;;;;8.82;76.46;99403.63;10199824;28;20683;-68
2023/11/11 19:52:29;;;;;;;4.70;3.00;;;;;;;8.79;76.54;99403.88;10200975;28;20056;-68
2023/11/11 19:57:31;;;;;;;3.47;2.67;;;;;;;8.78;76.30;99402.22;10199795;28;20650;-68
2023/11/11 20:02:35;;;;;;;4.72;3.40;;;;;;;8.70;76.72;99407.34;10197032;28;20050;-67
2023/11/11 20:07:37;;;;;;;5.40;3.23;;;;;;;8.78;76.45;99410.19;10207546;28;20163;-68
2023/11/11 20:12:39;;;;;;;4.30;3.25;;;;;;;8.80;76.63;99405.56;10199898;28;20055;-67
2023/11/11 20:17:41;;;;;;;4.78;3.30;;;;;;;8.78;76.44;99402.22;10197836;28;20924;-68
2023/11/11 20:22:43;;;;;;;3.78;3.25;;;;;;;8.71;76.38;99400.19;10196978;28;20062;-67
2023/11/11 20:27:45;;;;;;;3.47;2.75;;;;;;;8.73;76.58;99400.94;10201288;28;20055;-67
2023/11/11 20:32:48;;;;;;;5.93;2.83;;;;;;;8.74;76.32;99403.44;10202565;28;20062;-68
2023/11/11 20:37:49;;;;;;;5.05;2.95;;;;;;;8.71;76.52;99406.38;10200252;28;20074;-67
2023/11/11 20:42:51;;;;;;;6.00;3.30;;;;;;;8.67;76.20;99389.03;10201054;28;20172;-67
2023/11/11 20:47:53;;;;;;;3.03;2.53;;;;;;;8.60;76.60;99402.00;10200484;28;20058;-67
2023/11/11 20:52:54;;;;;;;4.68;3.00;;;;;;;8.54;76.87;99389.25;10198540;28;20103;-67
2023/11/11 20:57:56;;;;;;;5.25;2.90;;;;;;;8.47;76.91;99383.63;10200924;28;20082;-68
2023/11/11 21:02:58;;;;;;;3.67;2.78;;;;;;;8.54;77.10;99383.97;10183697;28;20059;-66
2023/11/11 21:07:59;;;;;;;4.60;2.58;;;;;;;8.51;76.96;99386.00;10200982;28;20062;-68
2023/11/11 21:13:02;;;;;;;5.70;3.38;;;;;;;8.44;77.51;99383.06;10203413;28;20062;-66
2023/11/11 21:18:04;;;;;;;6.15;3.22;;;;;;;8.37;77.26;99380.03;10212154;28;20129;-66
2023/11/11 21:23:06;;;;;;;5.10;3.28;;;;;;;8.36;77.61;99375.72;10203274;28;20557;-67
2023/11/11 21:28:08;;;;;;;4.70;3.13;;;;;;;8.30;77.90;99365.63;10203510;28;20074;-67
2023/11/11 21:33:10;;;;;;;4.38;3.33;;;;;;;8.31;78.25;99372.63;10210587;28;21152;-67
2023/11/11 21:38:12;;;;;;;5.43;3.60;;;;;;;8.27;78.75;99368.53;10200362;28;20055;-67
2023/11/11 21:43:15;;;;;;;5.30;2.97;;;;;;;8.22;78.70;99366.28;10209729;28;20066;-68
2023/11/11 21:48:17;;;;;;;4.68;3.45;;;;;;;8.29;78.76;99363.97;10213964;28;20117;-67
2023/11/11 21:53:19;;;;;;;4.43;3.42;;;;;;;8.24;79.19;99366.16;10204774;28;20094;-67
2023/11/11 21:58:21;;;;;;;4.95;3.72;;;;;;;8.22;79.76;99358.31;10211257;28;20126;-67
2023/11/11 22:03:22;;;;;;;4.35;3.42;;;;;;;8.19;79.60;99357.75;10213559;28;20065;-67
2023/11/11 22:08:24;;;;;;;5.47;4.00;;;;;;;8.10;80.54;99364.66;10206117;28;20052;-66
2023/11/11 22:13:25;;;;;;;7.05;3.33;;;;;;;8.12;80.52;99358.28;10221396;28;20078;-67
2023/11/11 22:18:28;;;;;;;6.13;3.60;;;;;;;8.16;80.53;99363.31;10196771;28;20055;-66
2023/11/11 22:23:29;;;;;;;5.00;3.40;;;;;;;8.02;80.73;99340.63;10200105;28;20066;-67
2023/11/11 22:28:32;;;;;;;6.05;3.97;;;;;;;8.07;81.24;99365.75;10213940;28;20602;-67
2023/11/11 22:33:36;;;;;;;5.07;3.92;;;;;;;8.00;81.75;99363.75;10208113;28;20060;-67
2023/11/11 22:38:38;;;;;;;4.88;3.97;;;;;;;8.04;81.57;99368.66;10187752;28;20497;-67
2023/11/11 22:43:41;;;;;;;4.40;4.00;;;;;;;7.96;81.68;99363.19;10209269;28;20069;-65
2023/11/11 22:48:42;;;;;;;5.95;3.78;;;;;;;7.89;82.34;99362.84;10197884;28;20047;-67
2023/11/11 22:53:44;;;;;;;5.30;3.92;;;;;;;7.90;82.37;99363.72;10210798;28;20054;-67
2023/11/11 22:58:48;;;;;;;6.68;4.40;;;;;;;7.82;82.41;99348.44;10207715;28;20625;-67
2023/11/11 23:03:51;;;;;;;5.97;3.92;;;;;;;8.04;82.18;99350.13;10208798;28;20054;-67
2023/11/11 23:08:52;;;;;;;4.60;4.20;;;;;;;8.00;81.96;99346.06;10222705;28;20149;-66
2023/11/11 23:13:54;;;;;;;5.22;3.63;;;;;;;7.84;82.38;99348.31;10203873;28;20416;-67
2023/11/11 23:18:56;;;;;;;4.95;3.85;;;;;;;7.84;82.48;99349.16;10204040;28;20121;-66
2023/11/11 23:23:59;;;;;;;5.30;4.13;;;;;;;7.85;82.58;99342.03;10213669;28;20060;-66
2023/11/11 23:29:00;;;;;;;6.18;3.58;;;;;;;7.72;82.67;99351.00;10211809;28;20228;-67
2023/11/11 23:34:02;;;;;;;5.03;3.80;;;;;;;7.72;82.87;99345.72;10219959;28;20196;-67
2023/11/11 23:39:04;;;;;;;5.30;4.05;;;;;;;7.61;83.40;99343.97;10197880;28;20058;-67